dúshū  fānyì  xuézhōngwén  běiměifēng  gèngduō» dēnglù  zhùcè     English 简体 繁體 pīnyīn bāngzhù

běiměifēngwénjí

kokho

来自:Singapore

共有文章:111篇

注册时间:

职业:IT consultant

兴趣:乒乓、摄影、诗歌

私人留言:

北美博客:kokho's blog

签名:乒乓、摄影、诗歌

7008262008-03-22 01:31

感念KOKHO,一切可好?!

120103199511022007-11-23 19:08

12010319951102来报道!

孤独牧牛2007-11-22 06:16

感谢kokho

放飞心情LL2007-11-22 05:24

今天是感恩节!虽然我不信基督,但我认同感恩,真的感谢上苍让我们相识,但愿我们成为一生的好朋友!祝福你我,亲爱的朋友,愿一起度过这个快乐的节日.

勿妄言2007-05-02 10:11

英文啊?看不懂Sad(
五一快乐!Smile)

半溪明月2007-05-01 08:36

问好KOKHO,五一快乐!Smile

宾至如归 回响     最后发表 作者 阅读
热烈 欢迎 漫碧傲 FLY AWAY 6 2007-08-17 02:08:47 江晨 2654
热烈 欢迎 Angel Ren 4 2007-08-01 05:08:57 金金 1737
热烈欢迎 秋蔷 勿妄言 莅临北美枫 20 2007-04-26 07:04:24 勿妄言 8040
热烈欢迎 云朵 上任迎宾大版主 13 2007-03-08 08:03:01 hepingdao 4687
热烈欢迎 吕和义 4 2007-03-01 20:03:00 kokho 2805
热烈欢迎 Lake 来我们的双语世界 14 2007-01-24 20:01:57 kokho 5404
热烈欢迎 silverfox 7 2007-01-24 20:01:08 kokho 3792
给 迪拜 的新年下午茶 ;) 3 2007-01-24 20:01:51 kokho 2602
A Warm Welcome to Elizabeth Bachinsky 0 2007-01-18 12:01:09 kokho 1715
热烈欢迎 双语健将 小枪 6 2007-01-18 11:01:30 kokho 3465
热烈欢迎 北美的月亮 11 2007-01-18 11:01:37 kokho 4999
热烈欢迎 月光情怀 莅临本站 4 2007-01-18 11:01:16 kokho 2689
热烈欢迎 Nobody 4 2007-01-12 19:01:45 Lake 3040
热烈欢迎 天岚 莅临 1 2007-01-10 00:01:32 hepingdao 1891
热烈欢迎 闲雅  2 2007-01-09 13:01:28 kokho 2155
热烈欢迎 双语文学高手 戴玨 3 2007-01-09 12:01:26 kokho 2484
热烈欢迎 guchengpoem 1 2007-01-08 17:01:43 和平岛 1751
祝墨染红颜 新年快乐  8) 1 2007-01-08 17:01:57 和平岛 1847
热烈欢迎 maybe 莅临 2 2007-01-07 02:01:16 杯中冲浪 2367
热烈欢迎 时东兵 莅临 2 2007-01-07 02:01:35 杯中冲浪 2486
1[2]  qiányè
English Poetry 回响     最后发表 作者 阅读
PREFACE FOR TAN SWIE HIAN'S 100 FABLES - by Dr. Ku Cheng Mei 1 2007-04-24 11:04:32 Lake 4072
[Original Billingual Song] Set Sail 《》 出航 23 2007-12-07 19:12:07 一言 32828
American Zen by Ray McNiece HAIKU - 3 5 2007-12-07 19:12:48 一言 8479
the spring of the yester-gleam - 馮瑀珊   8 2007-09-20 12:09:27 kokho 6679
Farewell Again, Cambridge 再别康桥 - 徐志摩 1 2007-09-06 13:09:32 kokho 3066
[Original Bilingual Song] The Flow of Mekong 《》 湄水不回头 7 2007-06-23 06:06:54 kino 4940
[Original Billingual Song] A Stone Guardian 《》 海滨守碑 6 2007-05-28 11:05:50 kokho 4276
Masterpiece by Tan Swie Hian <> Duality 1 2007-04-24 11:04:31 Lake 4261
American Zen by Ray McNiece HAIKU - 1 7 2007-04-22 23:04:53 kokho 9018
American Zen by Ray McNiece HAIKU - 4 4 2007-04-22 23:04:57 kokho 6265
[Zen 5-way rendition] Blue Pupil《》蓝的瞳 7 2007-04-19 13:04:21 kokho 6285
Master Piece by Tan Swee Hian <> Water Contemplation 2 2007-04-19 10:04:01 kokho 4204
[Original bilingual multi-read Poem] Stay《》留驻 7 2007-04-13 10:04:02 Lake 4801
Bilingual Zen Poetry The Plunge of Sakura Duet 9 2007-04-09 11:04:03 kokho 7762
Bilingual illustrated Zen Poetry - BackLit 2 2007-03-04 12:03:29 hepingdao 2567
Whispering Rings 絮絮叮嚀 2 2007-01-30 22:01:47 kokho 2713
Whole <> 全部 - Ms Slavick 4 2007-01-29 01:01:21 kokho 3591
现代诗歌 回响     最后发表 作者 阅读
nobody 的禅俳 的解读和交流 (希望版主们 一起努力诗歌交流) 29 2007-12-19 21:12:03 黑雨滴 18919
[原创禅诗两写] 三百和三十  27 2007-12-03 15:12:01 kokho 11867
[禅诗两写] - 根和绿叶 24 2007-11-22 15:11:56 kokho 10458
[原创故事诗] 心环石的传奇 11 2007-10-02 02:10:37 kokho 4869
[原创禅画诗] 滚滚红尘2 两写 96 2007-09-28 02:09:18 kokho 26432
秋诗 还是求诗? 献给星子 28 2007-09-26 18:09:36 杨海军 12538
[原创多读诗歌] 留驻  11 2007-09-08 18:09:20 新华 3642
[禅机五打] 蓝的瞳 32 2007-08-30 22:08:08 kokho 10012
[推介配乐诗] 《回回歌》 潘正镭  32 2007-08-19 03:08:19 kokho 10136
《出走 》 唱酬集 34 2007-05-28 11:05:55 kokho 10737
夜曲歌词-周杰伦 《》比诗歌还更有诗意2 9 2007-01-18 11:01:08 kokho 2879
进化论歌词-林俊杰 《》比诗歌还有诗意!!! 3 2007-01-10 00:01:00 kokho 1639
[原禅诗创] 禅的危机等诗选。。 18 2007-01-01 12:01:46 kokho 6724
[原创]早晨对隔夜的回顾 《》和七小姐 论诗 15 2006-12-17 14:12:59 kokho 4297
西方文学 Western Literature 回响     最后发表 作者 阅读
[原创图文双语禅诗 - 如果云知道 2/2 ] 15 2007-09-20 13:09:05 kokho 7815
倒装汉诗的英译 - 倒装结构是否应该保持? 13 2007-09-17 14:09:21 William Zhou周道模 6363
絮絮叮嚀 Whispering Rings 26 2007-07-30 10:07:01 kokho 14449
[原创双语多读诗歌] 留驻 《》 Stay 8 2007-07-05 22:07:34 William Zhou周道模 4877
Whole <> 全部 - Ms Slavick 3 2007-01-29 01:01:58 kokho 2749
雪 - 郑单衣 1 2007-01-09 00:01:37 和平岛 2319
[原创音乐双语歌曲] 出航《》Set Sail  7 2007-01-08 11:01:22 kokho 4351
[挑战名家系列1] 海鹞《》The Harrier 余光中/丁尼生 8 2006-12-13 21:12:14 kokho 4536
情商 《》梁文福 Deals of Emotion 4 2006-12-07 12:12:39 kokho 3580
俳句 我是驹 Billingual Haiku Horse's view n other 7 2006-12-07 12:12:48 kokho 4099
春光明媚如昨 《》 馮瑀珊  7 2006-12-06 11:12:38 kokho 3748
A cosmic dust 4 2006-12-06 11:12:51 kokho 2950
古韵新音 回响     最后发表 作者 阅读
古风 劝茶咛 36 2007-07-25 01:07:48 kokho 10635
[原创] 寄秋蔷 13 2007-05-07 23:05:16 kokho 3895
[原创] 慰楚风 17 2007-05-02 10:05:53 kokho 4903
[原创] 登山觅雅 10 2007-04-29 11:04:16 kokho 3163
[原创古绝] 来意 12 2007-04-22 12:04:16 kokho 4784
猴禅 5 2007-03-31 16:03:35 荷梦 2443
[七绝] 侨民颂 3 2007-03-30 06:03:44 白水 2136
[古绝] 风语 10 2007-03-29 22:03:01 kokho 4203
俳句 我是驹 Billingual Haiku Horse's view n other 3 2006-12-07 10:12:15 kokho 2667
评论鉴赏 Reviews 回响     最后发表 作者 阅读
[原创] 从一个笑话 看中华文化的盲点 7 2007-11-24 14:11:15 kokho 4536
[原创诗品] 编号17243 义气而诗生 13 2007-10-18 15:10:32 kokho 4662
[原创诗评] 后徐志摩的潇洒抒情诗 ? 5 2007-04-29 22:04:57 金金 4348
[原创评论] 含昕的 时代性创作 这个下午在和奶奶说话 9 2007-04-09 11:04:53 kokho 6194
熊熊诗焰4 – 广场上小石头的故事 16 2007-03-29 09:03:27 kokho 9036
和司马策风谈 朗诵诗的突破 35 2007-03-12 21:03:18 kokho 18903
散文游记 回响     最后发表 作者 阅读
[原创文化比较] 绿叶对根的情意 4 2007-11-27 10:11:11 kokho 3349
[原创] 一个人的精彩   ...七夕的顿悟 30 2007-11-22 17:11:06 JMX2007 11754
[原创] M工厂的小花园 11 2007-08-19 04:08:09 kokho 3549
》流浪该结束了吧?《 10 2007-03-08 11:03:47 kokho 3954
现代诗歌讲习交流班 回响     最后发表 作者 阅读
[1] 交流第一讲 余光中的“乡愁”给我们的启示 21 2013-05-01 11:05:41 李庆贺 38005
[1] 交流第一讲 讲习交流的模式  42 2008-01-28 07:01:58 溪语 55474
07年 11月23日 开课 :) 46 2008-01-28 07:01:51 溪语 52451
圣诞节 和 新年快乐 为了网友登陆、网站流量修复 休息到 2008年1月10号 7 2008-01-19 18:01:09 700826 13502
《北美枫》版主议事区 回响     最后发表 作者 阅读
关于 自由,平等,公正 7 2008-02-17 06:02:46 kino 94
《1》关于 克服网站流量问题 的两个方案 3 2007-12-17 18:12:29 kokho 21
给各位评委 和工作人员 献个议 7 2007-04-30 05:04:41 赵福治 70
联赛专刊编辑小组 回响     最后发表 作者 阅读
《3》 关于版主的客观表现指标 10 2008-01-13 20:01:02 赵福治 84
《2.2》白水吩咐 - hpd 的建议 谁不同意 就是打 hpd 的耳光 3 2007-12-18 22:12:51 hepingdao 55
内部加精讨论 18 2007-11-27 17:11:47 kokho 170
《北美枫》编辑委员会 回响     最后发表 作者 阅读
关于 北美枫 的长期发展观 4 2007-05-09 23:05:41 司马策风 28
给各位评委 和工作人员 献个议 1 2007-04-20 06:04:31 hepingdao 5
小说故事 回响     最后发表 作者 阅读
[原创] youyou晚归记《》38别写 8 2007-04-19 09:04:30 kokho 3981
《》烟视媚行别记 12 2007-04-18 10:04:47 kokho 5400
名家综述 Expert Review 回响     最后发表 作者 阅读
[导读] 张耳 对美国超越主义、日本俳句的会话 43 2018-01-16 19:01:11 jeje222 59863
PREFACE FOR TAN SWIE HIAN'S 100 FABLES - by Dr. Ku Cheng Mei 6 2007-12-12 09:12:37 kokho 13100
洛夫專欄  Lo Fu's Poetry Column 回响     最后发表 作者 阅读
[禅诗音画两写]  守望 3 2007-08-16 20:08:20 Fly away 8289
借明月的图 给七七一大片 :)) 1 2006-12-14 23:12:00 kokho 4551
Prose and Essay 回响     最后发表 作者 阅读
The Cultural Interactions during 2260 BC 11 2007-07-30 16:07:28 William Zhou周道模 7515
Chinese Poetry 回响     最后发表 作者 阅读
雪 - 郑单衣 Snow 15 2007-07-05 23:07:49 William Zhou周道模 8628
散文诗 Poetry in Prose 回响     最后发表 作者 阅读
[音画禅文] 喷泉,野鸽,小草和落叶 3 2007-03-09 16:03:55 秦华 3019

píngděng、zìyóu、kāifàng、fēnxiǎngdewénzìyúzhīshípíngtái
© 2006 - 2011 Yizitong 1.0 cèshìbǎn yìjiànfǎnkuì fúwùtiáokuǎn

本页面的文字允许在CC-BY-SA 3.0协议和GNU自由文档许可证下修改和再使用。